sensor_id;sensor_type;location;lat;lon;timestamp;P1;durP1;ratioP1;P2;durP2;ratioP2
41253;SDS011;26987;59.928;30.306;2023-09-12T00:00:51;18.67;;;6.93;;
41253;SDS011;26987;59.928;30.306;2023-09-12T00:03:19;14.65;;;6.88;;
41253;SDS011;26987;59.928;30.306;2023-09-12T00:05:51;18.05;;;6.53;;
41253;SDS011;26987;59.928;30.306;2023-09-12T00:08:20;23.70;;;6.28;;
41253;SDS011;26987;59.928;30.306;2023-09-12T00:10:59;16.95;;;7.47;;
41253;SDS011;26987;59.928;30.306;2023-09-12T00:13:28;14.43;;;6.55;;
41253;SDS011;26987;59.928;30.306;2023-09-12T00:15:56;16.13;;;7.38;;
41253;SDS011;26987;59.928;30.306;2023-09-12T00:18:24;17.73;;;6.10;;
41253;SDS011;26987;59.928;30.306;2023-09-12T00:20:52;17.60;;;6.53;;
41253;SDS011;26987;59.928;30.306;2023-09-12T00:23:20;16.27;;;7.15;;
41253;SDS011;26987;59.928;30.306;2023-09-12T00:25:49;19.92;;;7.93;;
41253;SDS011;26987;59.928;30.306;2023-09-12T00:28:19;20.85;;;7.65;;
41253;SDS011;26987;59.928;30.306;2023-09-12T00:30:47;15.05;;;6.68;;
41253;SDS011;26987;59.928;30.306;2023-09-12T00:33:15;19.00;;;7.78;;
41253;SDS011;26987;59.928;30.306;2023-09-12T00:35:43;11.93;;;7.15;;
41253;SDS011;26987;59.928;30.306;2023-09-12T00:38:11;27.20;;;6.68;;
41253;SDS011;26987;59.928;30.306;2023-09-12T00:40:39;16.48;;;6.80;;
41253;SDS011;26987;59.928;30.306;2023-09-12T00:43:07;13.85;;;6.88;;
41253;SDS011;26987;59.928;30.306;2023-09-12T00:45:37;19.50;;;6.80;;
41253;SDS011;26987;59.928;30.306;2023-09-12T00:48:05;11.88;;;6.53;;
41253;SDS011;26987;59.928;30.306;2023-09-12T00:50:34;15.50;;;7.28;;
41253;SDS011;26987;59.928;30.306;2023-09-12T00:53:04;15.75;;;7.57;;
41253;SDS011;26987;59.928;30.306;2023-09-12T00:55:32;23.50;;;8.30;;
41253;SDS011;26987;59.928;30.306;2023-09-12T00:58:01;15.77;;;6.63;;
41253;SDS011;26987;59.928;30.306;2023-09-12T01:00:30;14.27;;;6.82;;
41253;SDS011;26987;59.928;30.306;2023-09-12T01:02:59;18.23;;;7.72;;
41253;SDS011;26987;59.928;30.306;2023-09-12T01:05:28;15.82;;;7.00;;
41253;SDS011;26987;59.928;30.306;2023-09-12T01:07:56;20.17;;;6.70;;
41253;SDS011;26987;59.928;30.306;2023-09-12T01:10:24;15.07;;;6.68;;
41253;SDS011;26987;59.928;30.306;2023-09-12T01:12:52;15.65;;;6.70;;
41253;SDS011;26987;59.928;30.306;2023-09-12T01:15:20;14.10;;;6.55;;
41253;SDS011;26987;59.928;30.306;2023-09-12T01:17:48;17.00;;;6.63;;
41253;SDS011;26987;59.928;30.306;2023-09-12T01:20:18;13.55;;;6.72;;
41253;SDS011;26987;59.928;30.306;2023-09-12T01:23:05;16.95;;;7.18;;
41253;SDS011;26987;59.928;30.306;2023-09-12T01:28:41;14.77;;;6.43;;
41253;SDS011;26987;59.928;30.306;2023-09-12T01:31:12;14.80;;;6.60;;
41253;SDS011;26987;59.928;30.306;2023-09-12T01:33:40;18.98;;;7.63;;
41253;SDS011;26987;59.928;30.306;2023-09-12T01:36:09;16.48;;;7.05;;
41253;SDS011;26987;59.928;30.306;2023-09-12T01:38:37;15.77;;;7.45;;
41253;SDS011;26987;59.928;30.306;2023-09-12T01:41:06;18.73;;;8.27;;
41253;SDS011;26987;59.928;30.306;2023-09-12T01:43:34;20.38;;;7.75;;
41253;SDS011;26987;59.928;30.306;2023-09-12T01:46:07;14.13;;;7.22;;
41253;SDS011;26987;59.928;30.306;2023-09-12T01:48:35;22.08;;;7.93;;
41253;SDS011;26987;59.928;30.306;2023-09-12T01:51:04;17.75;;;7.68;;
41253;SDS011;26987;59.928;30.306;2023-09-12T01:53:33;14.85;;;7.63;;
41253;SDS011;26987;59.928;30.306;2023-09-12T01:56:03;19.02;;;7.38;;
41253;SDS011;26987;59.928;30.306;2023-09-12T01:58:32;19.17;;;8.57;;
41253;SDS011;26987;59.928;30.306;2023-09-12T02:01:00;20.13;;;7.55;;
41253;SDS011;26987;59.928;30.306;2023-09-12T02:03:29;16.75;;;7.47;;
41253;SDS011;26987;59.928;30.306;2023-09-12T02:05:57;16.13;;;7.28;;
41253;SDS011;26987;59.928;30.306;2023-09-12T02:08:25;15.48;;;6.95;;
41253;SDS011;26987;59.928;30.306;2023-09-12T02:10:53;14.32;;;7.47;;
41253;SDS011;26987;59.928;30.306;2023-09-12T02:13:20;14.90;;;7.95;;
41253;SDS011;26987;59.928;30.306;2023-09-12T02:15:48;14.93;;;7.10;;
41253;SDS011;26987;59.928;30.306;2023-09-12T02:18:16;20.88;;;7.88;;
41253;SDS011;26987;59.928;30.306;2023-09-12T02:20:46;22.08;;;8.20;;
41253;SDS011;26987;59.928;30.306;2023-09-12T02:23:14;15.38;;;8.45;;
41253;SDS011;26987;59.928;30.306;2023-09-12T02:25:42;17.33;;;8.13;;
41253;SDS011;26987;59.928;30.306;2023-09-12T02:28:10;17.33;;;8.23;;
41253;SDS011;26987;59.928;30.306;2023-09-12T02:30:38;22.73;;;8.50;;
41253;SDS011;26987;59.928;30.306;2023-09-12T02:33:06;19.20;;;8.55;;
41253;SDS011;26987;59.928;30.306;2023-09-12T02:35:34;16.63;;;8.13;;
41253;SDS011;26987;59.928;30.306;2023-09-12T02:38:04;16.30;;;8.07;;
41253;SDS011;26987;59.928;30.306;2023-09-12T02:40:32;16.58;;;8.88;;
41253;SDS011;26987;59.928;30.306;2023-09-12T02:42:59;19.15;;;9.20;;
41253;SDS011;26987;59.928;30.306;2023-09-12T02:45:28;15.07;;;8.35;;
41253;SDS011;26987;59.928;30.306;2023-09-12T02:47:57;23.98;;;9.43;;
41253;SDS011;26987;59.928;30.306;2023-09-12T02:50:25;16.42;;;8.50;;
41253;SDS011;26987;59.928;30.306;2023-09-12T02:52:52;22.58;;;8.75;;
41253;SDS011;26987;59.928;30.306;2023-09-12T02:55:22;26.52;;;9.20;;
41253;SDS011;26987;59.928;30.306;2023-09-12T02:57:50;23.10;;;9.30;;
41253;SDS011;26987;59.928;30.306;2023-09-12T03:00:18;19.88;;;10.85;;
41253;SDS011;26987;59.928;30.306;2023-09-12T03:02:47;23.40;;;9.18;;
41253;SDS011;26987;59.928;30.306;2023-09-12T03:05:15;24.90;;;9.20;;
41253;SDS011;26987;59.928;30.306;2023-09-12T03:07:42;16.10;;;8.73;;
41253;SDS011;26987;59.928;30.306;2023-09-12T03:10:10;18.85;;;8.30;;
41253;SDS011;26987;59.928;30.306;2023-09-12T03:12:40;18.58;;;8.80;;
41253;SDS011;26987;59.928;30.306;2023-09-12T03:15:09;18.50;;;9.45;;
41253;SDS011;26987;59.928;30.306;2023-09-12T03:17:37;18.85;;;11.55;;
41253;SDS011;26987;59.928;30.306;2023-09-12T03:20:06;21.65;;;9.23;;
41253;SDS011;26987;59.928;30.306;2023-09-12T03:22:35;20.35;;;9.15;;
41253;SDS011;26987;59.928;30.306;2023-09-12T03:25:04;25.50;;;9.93;;
41253;SDS011;26987;59.928;30.306;2023-09-12T03:27:32;24.23;;;10.38;;
41253;SDS011;26987;59.928;30.306;2023-09-12T03:30:02;22.20;;;10.40;;
41253;SDS011;26987;59.928;30.306;2023-09-12T03:32:31;27.35;;;10.10;;
41253;SDS011;26987;59.928;30.306;2023-09-12T03:34:59;23.33;;;9.80;;
41253;SDS011;26987;59.928;30.306;2023-09-12T03:37:26;20.92;;;10.30;;
41253;SDS011;26987;59.928;30.306;2023-09-12T03:39:54;16.80;;;10.10;;
41253;SDS011;26987;59.928;30.306;2023-09-12T03:42:22;24.48;;;10.18;;
41253;SDS011;26987;59.928;30.306;2023-09-12T03:44:50;22.77;;;9.60;;
41253;SDS011;26987;59.928;30.306;2023-09-12T03:47:19;26.60;;;9.95;;
41253;SDS011;26987;59.928;30.306;2023-09-12T03:49:47;23.10;;;9.88;;
41253;SDS011;26987;59.928;30.306;2023-09-12T03:52:15;18.88;;;9.50;;
41253;SDS011;26987;59.928;30.306;2023-09-12T03:54:43;24.02;;;10.00;;
41253;SDS011;26987;59.928;30.306;2023-09-12T03:57:11;20.23;;;10.40;;
41253;SDS011;26987;59.928;30.306;2023-09-12T03:59:39;24.48;;;10.38;;
41253;SDS011;26987;59.928;30.306;2023-09-12T04:02:08;19.25;;;9.95;;
41253;SDS011;26987;59.928;30.306;2023-09-12T04:04:37;23.10;;;10.40;;
41253;SDS011;26987;59.928;30.306;2023-09-12T04:07:06;33.58;;;10.35;;
41253;SDS011;26987;59.928;30.306;2023-09-12T04:09:34;25.33;;;10.25;;
41253;SDS011;26987;59.928;30.306;2023-09-12T04:12:02;24.25;;;9.98;;
41253;SDS011;26987;59.928;30.306;2023-09-12T04:14:30;19.10;;;9.23;;
41253;SDS011;26987;59.928;30.306;2023-09-12T04:16:58;22.38;;;8.93;;
41253;SDS011;26987;59.928;30.306;2023-09-12T04:19:27;18.80;;;8.02;;
41253;SDS011;26987;59.928;30.306;2023-09-12T04:21:56;16.63;;;8.45;;
41253;SDS011;26987;59.928;30.306;2023-09-12T04:24:24;20.45;;;7.50;;
41253;SDS011;26987;59.928;30.306;2023-09-12T04:26:51;18.95;;;7.85;;
41253;SDS011;26987;59.928;30.306;2023-09-12T04:29:20;16.90;;;6.50;;
41253;SDS011;26987;59.928;30.306;2023-09-12T04:31:48;11.18;;;5.32;;
41253;SDS011;26987;59.928;30.306;2023-09-12T04:34:18;16.08;;;5.38;;
41253;SDS011;26987;59.928;30.306;2023-09-12T04:36:46;14.25;;;5.65;;
41253;SDS011;26987;59.928;30.306;2023-09-12T04:39:15;11.02;;;5.30;;
41253;SDS011;26987;59.928;30.306;2023-09-12T04:41:43;14.50;;;4.88;;
41253;SDS011;26987;59.928;30.306;2023-09-12T04:44:11;15.75;;;5.38;;
41253;SDS011;26987;59.928;30.306;2023-09-12T04:46:39;13.57;;;4.80;;
41253;SDS011;26987;59.928;30.306;2023-09-12T04:49:10;13.55;;;5.45;;
41253;SDS011;26987;59.928;30.306;2023-09-12T04:51:38;14.10;;;4.70;;
41253;SDS011;26987;59.928;30.306;2023-09-12T04:54:06;16.33;;;5.22;;
41253;SDS011;26987;59.928;30.306;2023-09-12T04:56:35;9.52;;;4.80;;
41253;SDS011;26987;59.928;30.306;2023-09-12T04:59:03;13.82;;;4.47;;
41253;SDS011;26987;59.928;30.306;2023-09-12T05:01:33;14.35;;;4.70;;
41253;SDS011;26987;59.928;30.306;2023-09-12T05:04:00;7.15;;;4.10;;
41253;SDS011;26987;59.928;30.306;2023-09-12T05:06:29;8.27;;;4.15;;
41253;SDS011;26987;59.928;30.306;2023-09-12T05:08:57;8.57;;;4.28;;
41253;SDS011;26987;59.928;30.306;2023-09-12T05:11:25;13.45;;;4.15;;
41253;SDS011;26987;59.928;30.306;2023-09-12T05:13:55;8.48;;;4.15;;
41253;SDS011;26987;59.928;30.306;2023-09-12T05:16:23;8.27;;;4.00;;
41253;SDS011;26987;59.928;30.306;2023-09-12T05:18:51;9.55;;;3.75;;
41253;SDS011;26987;59.928;30.306;2023-09-12T05:21:20;12.00;;;3.90;;
41253;SDS011;26987;59.928;30.306;2023-09-12T05:23:48;14.25;;;3.90;;
41253;SDS011;26987;59.928;30.306;2023-09-12T05:26:16;8.50;;;3.80;;
41253;SDS011;26987;59.928;30.306;2023-09-12T05:28:44;7.47;;;3.55;;
41253;SDS011;26987;59.928;30.306;2023-09-12T05:31:13;5.90;;;3.40;;
41253;SDS011;26987;59.928;30.306;2023-09-12T05:33:41;8.85;;;3.70;;
41253;SDS011;26987;59.928;30.306;2023-09-12T05:36:08;13.25;;;4.40;;
41253;SDS011;26987;59.928;30.306;2023-09-12T05:38:37;6.45;;;3.65;;
41253;SDS011;26987;59.928;30.306;2023-09-12T05:41:05;10.05;;;3.25;;
41253;SDS011;26987;59.928;30.306;2023-09-12T05:43:34;10.35;;;4.15;;
41253;SDS011;26987;59.928;30.306;2023-09-12T05:46:02;15.73;;;4.07;;
41253;SDS011;26987;59.928;30.306;2023-09-12T05:48:31;8.35;;;4.30;;
41253;SDS011;26987;59.928;30.306;2023-09-12T05:50:59;14.18;;;4.00;;
41253;SDS011;26987;59.928;30.306;2023-09-12T05:53:27;12.40;;;3.75;;
41253;SDS011;26987;59.928;30.306;2023-09-12T05:55:55;12.32;;;3.85;;
41253;SDS011;26987;59.928;30.306;2023-09-12T05:58:23;10.88;;;4.60;;
41253;SDS011;26987;59.928;30.306;2023-09-12T06:00:51;7.07;;;3.30;;
41253;SDS011;26987;59.928;30.306;2023-09-12T06:03:19;10.65;;;3.47;;
41253;SDS011;26987;59.928;30.306;2023-09-12T06:05:49;14.18;;;4.30;;
41253;SDS011;26987;59.928;30.306;2023-09-12T06:08:17;13.35;;;3.80;;
41253;SDS011;26987;59.928;30.306;2023-09-12T06:10:45;10.50;;;3.90;;
41253;SDS011;26987;59.928;30.306;2023-09-12T06:13:14;13.15;;;3.97;;
41253;SDS011;26987;59.928;30.306;2023-09-12T06:15:42;8.02;;;3.50;;
41253;SDS011;26987;59.928;30.306;2023-09-12T06:18:10;10.55;;;4.15;;
41253;SDS011;26987;59.928;30.306;2023-09-12T06:20:38;16.13;;;3.78;;
41253;SDS011;26987;59.928;30.306;2023-09-12T06:23:07;10.13;;;4.07;;
41253;SDS011;26987;59.928;30.306;2023-09-12T06:25:36;9.05;;;3.78;;
41253;SDS011;26987;59.928;30.306;2023-09-12T06:28:05;21.10;;;4.10;;
41253;SDS011;26987;59.928;30.306;2023-09-12T06:30:35;11.88;;;4.18;;
41253;SDS011;26987;59.928;30.306;2023-09-12T06:33:03;12.75;;;3.50;;
41253;SDS011;26987;59.928;30.306;2023-09-12T06:35:32;7.30;;;3.55;;
41253;SDS011;26987;59.928;30.306;2023-09-12T06:38:00;10.43;;;4.25;;
41253;SDS011;26987;59.928;30.306;2023-09-12T06:40:29;13.27;;;3.80;;
41253;SDS011;26987;59.928;30.306;2023-09-12T06:42:57;9.02;;;3.83;;
41253;SDS011;26987;59.928;30.306;2023-09-12T06:45:25;18.35;;;5.30;;
41253;SDS011;26987;59.928;30.306;2023-09-12T06:47:52;10.32;;;4.22;;
41253;SDS011;26987;59.928;30.306;2023-09-12T06:50:20;12.57;;;4.30;;
41253;SDS011;26987;59.928;30.306;2023-09-12T06:52:48;16.67;;;4.57;;
41253;SDS011;26987;59.928;30.306;2023-09-12T06:55:16;16.00;;;3.72;;
41253;SDS011;26987;59.928;30.306;2023-09-12T06:57:45;11.82;;;3.70;;
41253;SDS011;26987;59.928;30.306;2023-09-12T07:00:13;12.38;;;3.17;;
41253;SDS011;26987;59.928;30.306;2023-09-12T07:02:42;9.55;;;4.15;;
41253;SDS011;26987;59.928;30.306;2023-09-12T07:05:10;14.48;;;4.07;;
41253;SDS011;26987;59.928;30.306;2023-09-12T07:07:38;14.73;;;5.05;;
41253;SDS011;26987;59.928;30.306;2023-09-12T07:10:06;15.40;;;4.85;;
41253;SDS011;26987;59.928;30.306;2023-09-12T07:12:34;13.30;;;4.85;;
41253;SDS011;26987;59.928;30.306;2023-09-12T07:15:04;14.38;;;5.20;;
41253;SDS011;26987;59.928;30.306;2023-09-12T07:17:33;15.13;;;4.93;;
41253;SDS011;26987;59.928;30.306;2023-09-12T07:20:00;14.80;;;4.15;;
41253;SDS011;26987;59.928;30.306;2023-09-12T07:22:29;14.15;;;5.07;;
41253;SDS011;26987;59.928;30.306;2023-09-12T07:24:59;16.65;;;4.93;;
41253;SDS011;26987;59.928;30.306;2023-09-12T07:27:28;17.50;;;4.45;;
41253;SDS011;26987;59.928;30.306;2023-09-12T07:29:56;15.02;;;3.95;;
41253;SDS011;26987;59.928;30.306;2023-09-12T07:32:25;17.48;;;5.53;;
41253;SDS011;26987;59.928;30.306;2023-09-12T07:34:52;11.18;;;5.15;;
41253;SDS011;26987;59.928;30.306;2023-09-12T07:37:20;10.93;;;4.30;;
41253;SDS011;26987;59.928;30.306;2023-09-12T07:39:48;18.30;;;5.38;;
41253;SDS011;26987;59.928;30.306;2023-09-12T07:42:16;21.42;;;5.10;;
41253;SDS011;26987;59.928;30.306;2023-09-12T07:44:47;12.32;;;3.97;;
41253;SDS011;26987;59.928;30.306;2023-09-12T07:47:15;15.52;;;5.25;;
41253;SDS011;26987;59.928;30.306;2023-09-12T07:49:44;31.33;;;5.40;;
41253;SDS011;26987;59.928;30.306;2023-09-12T07:52:12;14.02;;;4.80;;
41253;SDS011;26987;59.928;30.306;2023-09-12T07:54:40;19.80;;;4.82;;
41253;SDS011;26987;59.928;30.306;2023-09-12T07:57:08;26.58;;;4.72;;
41253;SDS011;26987;59.928;30.306;2023-09-12T07:59:36;16.73;;;3.90;;
41253;SDS011;26987;59.928;30.306;2023-09-12T08:02:04;8.98;;;3.80;;
41253;SDS011;26987;59.928;30.306;2023-09-12T08:04:32;13.07;;;4.32;;
41253;SDS011;26987;59.928;30.306;2023-09-12T08:07:01;19.90;;;3.88;;
41253;SDS011;26987;59.928;30.306;2023-09-12T08:09:48;10.93;;;4.65;;
41253;SDS011;26987;59.928;30.306;2023-09-12T08:12:17;10.00;;;4.05;;
41253;SDS011;26987;59.928;30.306;2023-09-12T08:14:46;19.52;;;3.80;;
41253;SDS011;26987;59.928;30.306;2023-09-12T08:17:14;11.75;;;4.03;;
41253;SDS011;26987;59.928;30.306;2023-09-12T08:19:42;12.50;;;3.53;;
41253;SDS011;26987;59.928;30.306;2023-09-12T08:22:11;7.55;;;3.30;;
41253;SDS011;26987;59.928;30.306;2023-09-12T08:24:39;9.82;;;3.08;;
41253;SDS011;26987;59.928;30.306;2023-09-12T08:27:07;15.40;;;4.15;;
41253;SDS011;26987;59.928;30.306;2023-09-12T08:29:36;15.75;;;3.83;;
41253;SDS011;26987;59.928;30.306;2023-09-12T08:32:04;16.23;;;4.82;;
41253;SDS011;26987;59.928;30.306;2023-09-12T08:34:32;31.98;;;5.50;;
41253;SDS011;26987;59.928;30.306;2023-09-12T08:37:00;14.13;;;3.63;;
41253;SDS011;26987;59.928;30.306;2023-09-12T08:39:39;26.00;;;6.72;;
41253;SDS011;26987;59.928;30.306;2023-09-12T08:42:11;20.83;;;4.45;;
41253;SDS011;26987;59.928;30.306;2023-09-12T08:44:40;8.88;;;3.67;;
41253;SDS011;26987;59.928;30.306;2023-09-12T08:47:08;15.38;;;3.53;;
41253;SDS011;26987;59.928;30.306;2023-09-12T08:49:38;12.90;;;3.40;;
41253;SDS011;26987;59.928;30.306;2023-09-12T08:52:08;9.48;;;3.20;;
41253;SDS011;26987;59.928;30.306;2023-09-12T08:54:37;9.13;;;3.42;;
41253;SDS011;26987;59.928;30.306;2023-09-12T08:57:05;12.13;;;3.60;;
41253;SDS011;26987;59.928;30.306;2023-09-12T08:59:34;17.77;;;3.47;;
41253;SDS011;26987;59.928;30.306;2023-09-12T09:02:02;20.27;;;3.83;;
41253;SDS011;26987;59.928;30.306;2023-09-12T09:04:33;13.70;;;3.58;;
41253;SDS011;26987;59.928;30.306;2023-09-12T09:07:03;18.70;;;3.78;;
41253;SDS011;26987;59.928;30.306;2023-09-12T09:09:31;8.55;;;3.05;;
41253;SDS011;26987;59.928;30.306;2023-09-12T09:12:01;7.22;;;3.25;;
41253;SDS011;26987;59.928;30.306;2023-09-12T09:14:29;20.08;;;4.13;;
41253;SDS011;26987;59.928;30.306;2023-09-12T09:16:57;17.92;;;3.72;;
41253;SDS011;26987;59.928;30.306;2023-09-12T09:19:29;13.88;;;4.07;;
41253;SDS011;26987;59.928;30.306;2023-09-12T09:22:08;13.05;;;3.67;;
41253;SDS011;26987;59.928;30.306;2023-09-12T09:24:36;17.08;;;4.07;;
41253;SDS011;26987;59.928;30.306;2023-09-12T09:27:06;11.35;;;4.03;;
41253;SDS011;26987;59.928;30.306;2023-09-12T09:29:45;12.70;;;3.72;;
41253;SDS011;26987;59.928;30.306;2023-09-12T09:32:16;11.13;;;3.78;;
41253;SDS011;26987;59.928;30.306;2023-09-12T09:34:47;15.97;;;3.40;;
41253;SDS011;26987;59.928;30.306;2023-09-12T09:37:15;10.85;;;3.67;;
41253;SDS011;26987;59.928;30.306;2023-09-12T09:39:45;5.72;;;3.13;;
41253;SDS011;26987;59.928;30.306;2023-09-12T09:42:19;7.70;;;3.13;;
41253;SDS011;26987;59.928;30.306;2023-09-12T09:44:47;11.55;;;3.35;;
41253;SDS011;26987;59.928;30.306;2023-09-12T09:47:16;10.65;;;3.13;;
41253;SDS011;26987;59.928;30.306;2023-09-12T09:49:46;12.77;;;3.72;;
41253;SDS011;26987;59.928;30.306;2023-09-12T09:52:13;9.40;;;3.97;;
41253;SDS011;26987;59.928;30.306;2023-09-12T09:54:43;6.63;;;2.97;;
41253;SDS011;26987;59.928;30.306;2023-09-12T09:57:12;6.93;;;3.03;;
41253;SDS011;26987;59.928;30.306;2023-09-12T09:59:41;10.77;;;3.42;;
41253;SDS011;26987;59.928;30.306;2023-09-12T10:02:16;14.63;;;3.28;;
41253;SDS011;26987;59.928;30.306;2023-09-12T10:04:47;7.20;;;3.58;;
41253;SDS011;26987;59.928;30.306;2023-09-12T10:07:16;5.68;;;3.10;;
41253;SDS011;26987;59.928;30.306;2023-09-12T10:09:46;8.52;;;3.33;;
41253;SDS011;26987;59.928;30.306;2023-09-12T10:12:14;10.80;;;3.17;;
41253;SDS011;26987;59.928;30.306;2023-09-12T10:14:44;8.75;;;3.50;;
41253;SDS011;26987;59.928;30.306;2023-09-12T10:17:13;7.57;;;3.35;;
41253;SDS011;26987;59.928;30.306;2023-09-12T10:19:48;8.80;;;3.20;;
41253;SDS011;26987;59.928;30.306;2023-09-12T10:22:23;5.72;;;3.22;;
41253;SDS011;26987;59.928;30.306;2023-09-12T10:24:55;13.13;;;3.28;;
41253;SDS011;26987;59.928;30.306;2023-09-12T10:27:24;10.18;;;3.25;;
41253;SDS011;26987;59.928;30.306;2023-09-12T10:29:55;15.80;;;2.83;;
41253;SDS011;26987;59.928;30.306;2023-09-12T10:32:25;13.68;;;3.70;;
41253;SDS011;26987;59.928;30.306;2023-09-12T10:34:56;9.63;;;3.42;;
41253;SDS011;26987;59.928;30.306;2023-09-12T10:37:27;11.85;;;3.63;;
41253;SDS011;26987;59.928;30.306;2023-09-12T10:39:59;9.32;;;3.92;;
41253;SDS011;26987;59.928;30.306;2023-09-12T10:42:32;12.80;;;3.40;;
41253;SDS011;26987;59.928;30.306;2023-09-12T10:45:02;7.85;;;3.08;;
41253;SDS011;26987;59.928;30.306;2023-09-12T10:47:34;10.63;;;3.55;;
41253;SDS011;26987;59.928;30.306;2023-09-12T10:50:02;8.15;;;2.88;;
41253;SDS011;26987;59.928;30.306;2023-09-12T10:52:31;5.72;;;2.80;;
41253;SDS011;26987;59.928;30.306;2023-09-12T10:55:02;12.30;;;3.30;;
41253;SDS011;26987;59.928;30.306;2023-09-12T10:57:32;11.35;;;3.20;;
41253;SDS011;26987;59.928;30.306;2023-09-12T11:00:12;7.60;;;3.10;;
41253;SDS011;26987;59.928;30.306;2023-09-12T11:02:40;7.90;;;3.35;;
41253;SDS011;26987;59.928;30.306;2023-09-12T11:08:05;14.55;;;3.70;;
41253;SDS011;26987;59.928;30.306;2023-09-12T11:10:32;18.55;;;4.15;;
41253;SDS011;26987;59.928;30.306;2023-09-12T11:13:00;15.02;;;4.25;;
41253;SDS011;26987;59.928;30.306;2023-09-12T11:15:30;13.70;;;4.22;;
41253;SDS011;26987;59.928;30.306;2023-09-12T11:18:01;14.32;;;3.75;;
41253;SDS011;26987;59.928;30.306;2023-09-12T11:20:49;14.88;;;4.93;;
41253;SDS011;26987;59.928;30.306;2023-09-12T11:23:25;16.27;;;4.10;;
41253;SDS011;26987;59.928;30.306;2023-09-12T11:26:02;13.00;;;3.28;;
41253;SDS011;26987;59.928;30.306;2023-09-12T11:28:32;15.75;;;4.10;;
41253;SDS011;26987;59.928;30.306;2023-09-12T11:31:02;10.68;;;3.75;;
41253;SDS011;26987;59.928;30.306;2023-09-12T11:33:31;12.85;;;4.10;;
41253;SDS011;26987;59.928;30.306;2023-09-12T11:36:00;6.38;;;3.10;;
41253;SDS011;26987;59.928;30.306;2023-09-12T11:38:31;9.48;;;3.70;;
41253;SDS011;26987;59.928;30.306;2023-09-12T11:40:59;15.55;;;3.30;;
41253;SDS011;26987;59.928;30.306;2023-09-12T11:43:27;7.53;;;3.17;;
41253;SDS011;26987;59.928;30.306;2023-09-12T11:45:56;8.50;;;3.13;;
41253;SDS011;26987;59.928;30.306;2023-09-12T11:48:26;5.80;;;3.22;;
41253;SDS011;26987;59.928;30.306;2023-09-12T11:50:56;10.65;;;2.90;;
41253;SDS011;26987;59.928;30.306;2023-09-12T11:53:25;9.40;;;3.50;;
41253;SDS011;26987;59.928;30.306;2023-09-12T11:55:57;13.90;;;3.72;;
41253;SDS011;26987;59.928;30.306;2023-09-12T11:58:26;9.38;;;3.42;;
41253;SDS011;26987;59.928;30.306;2023-09-12T12:00:55;6.40;;;2.85;;
41253;SDS011;26987;59.928;30.306;2023-09-12T12:03:24;8.38;;;3.45;;
41253;SDS011;26987;59.928;30.306;2023-09-12T12:05:54;10.80;;;3.47;;
41253;SDS011;26987;59.928;30.306;2023-09-12T12:08:23;14.85;;;4.22;;
41253;SDS011;26987;59.928;30.306;2023-09-12T12:10:51;11.80;;;3.50;;
41253;SDS011;26987;59.928;30.306;2023-09-12T12:13:19;18.73;;;3.70;;
41253;SDS011;26987;59.928;30.306;2023-09-12T12:15:48;11.02;;;3.88;;
41253;SDS011;26987;59.928;30.306;2023-09-12T12:18:16;18.40;;;3.67;;
41253;SDS011;26987;59.928;30.306;2023-09-12T12:20:45;13.80;;;3.38;;
41253;SDS011;26987;59.928;30.306;2023-09-12T12:23:13;9.65;;;3.72;;
41253;SDS011;26987;59.928;30.306;2023-09-12T12:25:41;9.25;;;3.83;;
41253;SDS011;26987;59.928;30.306;2023-09-12T12:28:08;16.15;;;4.03;;
41253;SDS011;26987;59.928;30.306;2023-09-12T12:30:36;8.82;;;3.65;;
41253;SDS011;26987;59.928;30.306;2023-09-12T12:33:07;10.82;;;4.15;;
41253;SDS011;26987;59.928;30.306;2023-09-12T12:35:35;8.98;;;3.95;;
41253;SDS011;26987;59.928;30.306;2023-09-12T12:38:05;8.90;;;3.72;;
41253;SDS011;26987;59.928;30.306;2023-09-12T12:40:36;8.65;;;3.78;;
41253;SDS011;26987;59.928;30.306;2023-09-12T12:43:06;12.07;;;4.13;;
41253;SDS011;26987;59.928;30.306;2023-09-12T12:45:51;13.90;;;4.05;;
41253;SDS011;26987;59.928;30.306;2023-09-12T12:48:29;8.55;;;3.75;;
41253;SDS011;26987;59.928;30.306;2023-09-12T12:50:57;6.72;;;3.10;;
41253;SDS011;26987;59.928;30.306;2023-09-12T12:53:39;12.23;;;3.80;;
41253;SDS011;26987;59.928;30.306;2023-09-12T12:56:07;15.25;;;3.50;;
41253;SDS011;26987;59.928;30.306;2023-09-12T12:58:35;7.70;;;3.60;;
41253;SDS011;26987;59.928;30.306;2023-09-12T13:01:04;10.35;;;4.32;;
41253;SDS011;26987;59.928;30.306;2023-09-12T13:03:32;12.68;;;4.45;;
41253;SDS011;26987;59.928;30.306;2023-09-12T13:05:59;9.75;;;3.80;;
41253;SDS011;26987;59.928;30.306;2023-09-12T13:08:27;14.60;;;4.35;;
41253;SDS011;26987;59.928;30.306;2023-09-12T13:10:56;11.32;;;3.60;;
41253;SDS011;26987;59.928;30.306;2023-09-12T13:13:24;9.55;;;3.42;;
41253;SDS011;26987;59.928;30.306;2023-09-12T13:15:52;6.20;;;3.67;;
41253;SDS011;26987;59.928;30.306;2023-09-12T13:18:20;11.60;;;3.78;;
41253;SDS011;26987;59.928;30.306;2023-09-12T13:20:48;10.75;;;3.70;;
41253;SDS011;26987;59.928;30.306;2023-09-12T13:23:16;8.10;;;3.30;;
41253;SDS011;26987;59.928;30.306;2023-09-12T13:25:43;11.18;;;3.92;;
41253;SDS011;26987;59.928;30.306;2023-09-12T13:28:13;10.23;;;3.25;;
41253;SDS011;26987;59.928;30.306;2023-09-12T13:30:40;8.80;;;3.42;;
41253;SDS011;26987;59.928;30.306;2023-09-12T13:33:08;8.73;;;3.60;;
41253;SDS011;26987;59.928;30.306;2023-09-12T13:35:37;9.70;;;4.15;;
41253;SDS011;26987;59.928;30.306;2023-09-12T13:38:04;10.48;;;3.85;;
41253;SDS011;26987;59.928;30.306;2023-09-12T13:40:36;11.52;;;4.03;;
41253;SDS011;26987;59.928;30.306;2023-09-12T13:43:05;11.02;;;3.45;;
41253;SDS011;26987;59.928;30.306;2023-09-12T13:45:34;8.02;;;3.83;;
41253;SDS011;26987;59.928;30.306;2023-09-12T13:48:03;11.38;;;3.88;;
41253;SDS011;26987;59.928;30.306;2023-09-12T13:50:32;14.65;;;4.20;;
41253;SDS011;26987;59.928;30.306;2023-09-12T13:53:00;18.45;;;4.07;;
41253;SDS011;26987;59.928;30.306;2023-09-12T13:55:31;14.15;;;4.40;;
41253;SDS011;26987;59.928;30.306;2023-09-12T13:58:02;9.95;;;3.70;;
41253;SDS011;26987;59.928;30.306;2023-09-12T14:00:30;13.50;;;3.80;;
41253;SDS011;26987;59.928;30.306;2023-09-12T14:03:00;16.05;;;4.68;;
41253;SDS011;26987;59.928;30.306;2023-09-12T14:05:28;14.95;;;3.88;;
41253;SDS011;26987;59.928;30.306;2023-09-12T14:07:56;11.98;;;4.50;;
41253;SDS011;26987;59.928;30.306;2023-09-12T14:10:24;12.00;;;4.63;;
41253;SDS011;26987;59.928;30.306;2023-09-12T14:12:52;15.57;;;3.85;;
41253;SDS011;26987;59.928;30.306;2023-09-12T14:15:20;8.30;;;4.15;;
41253;SDS011;26987;59.928;30.306;2023-09-12T14:17:48;17.70;;;4.22;;
41253;SDS011;26987;59.928;30.306;2023-09-12T14:20:17;9.93;;;3.53;;
41253;SDS011;26987;59.928;30.306;2023-09-12T14:22:45;12.73;;;4.53;;
41253;SDS011;26987;59.928;30.306;2023-09-12T14:25:13;6.45;;;2.97;;
41253;SDS011;26987;59.928;30.306;2023-09-12T14:27:41;12.18;;;4.13;;
41253;SDS011;26987;59.928;30.306;2023-09-12T14:30:10;13.68;;;3.85;;
41253;SDS011;26987;59.928;30.306;2023-09-12T14:32:40;9.25;;;3.85;;
41253;SDS011;26987;59.928;30.306;2023-09-12T14:35:08;18.08;;;3.78;;
41253;SDS011;26987;59.928;30.306;2023-09-12T14:37:37;8.48;;;2.75;;
41253;SDS011;26987;59.928;30.306;2023-09-12T14:40:05;11.07;;;3.58;;